Time;durP1;ratioP1;P1;durP2;ratioP2;P2;SDS_P1;SDS_P2;PMS_P1;PMS_P2;Temp;Humidity;BMP_temperature;BMP_pressure;BME280_temperature;BME280_humidity;BME280_pressure;Samples;Min_cycle;Max_cycle;Signal;HPM_P1;HPM_P2
2022/10/01 00:01:54;;;;;;;10.87;8.20;;;13.20;99.90;14.90;96554.00;;;;5005576;28;20201;-63
2022/10/01 00:04:43;;;;;;;10.23;7.67;;;13.20;99.90;14.80;96553.00;;;;4997719;28;20614;-63
2022/10/01 00:07:38;;;;;;;14.17;8.50;;;13.20;99.90;14.80;96545.00;;;;5006517;28;20336;-63
2022/10/01 00:10:29;;;;;;;15.73;9.07;;;13.20;99.90;14.80;96559.00;;;;5002255;28;20305;-63
2022/10/01 00:13:19;;;;;;;11.87;8.10;;;13.20;99.90;14.70;96568.00;;;;5005310;28;20217;-62
2022/10/01 00:16:11;;;;;;;9.40;7.63;;;13.20;99.90;14.80;96567.00;;;;4998603;28;20723;-63
2022/10/01 00:19:00;;;;;;;12.67;8.80;;;13.20;99.90;14.70;96559.00;;;;4998776;28;20206;-63
2022/10/01 00:21:49;;;;;;;10.90;8.40;;;13.20;99.90;14.90;96568.00;;;;5002406;28;20233;-63
2022/10/01 00:24:37;;;;;;;10.57;8.30;;;13.20;99.90;14.80;96561.00;;;;5001022;28;20205;-63
2022/10/01 00:27:26;;;;;;;8.63;7.43;;;13.20;99.90;14.80;96563.00;;;;5006260;28;20220;-62
2022/10/01 00:30:16;;;;;;;11.80;7.80;;;13.20;99.90;14.80;96565.00;;;;5006581;28;20594;-63
2022/10/01 00:33:05;;;;;;;9.47;7.70;;;13.20;99.90;14.80;96558.00;;;;5008906;28;20252;-63
2022/10/01 00:35:55;;;;;;;17.00;9.40;;;13.20;99.90;14.80;96550.00;;;;4996951;28;20305;-63
2022/10/01 00:38:45;;;;;;;10.10;8.00;;;13.20;99.90;14.70;96554.00;;;;4999498;28;20268;-62
2022/10/01 00:41:34;;;;;;;12.20;9.47;;;13.20;99.90;14.70;96554.00;;;;5000307;28;20221;-63
2022/10/01 00:44:33;;;;;;;12.83;9.13;;;13.20;99.90;14.60;96556.00;;;;5001510;28;20206;-63
2022/10/01 00:47:27;;;;;;;12.93;8.17;;;13.20;99.90;14.60;96554.00;;;;5007439;28;20218;-62
2022/10/01 00:50:22;;;;;;;12.10;9.73;;;13.20;99.90;14.80;96547.00;;;;4999032;28;20280;-62
2022/10/01 00:53:13;;;;;;;12.87;9.43;;;13.20;99.90;14.70;96539.00;;;;5008246;28;20300;-62
2022/10/01 00:56:01;;;;;;;13.63;9.97;;;13.20;99.90;14.60;96537.00;;;;5004765;28;20258;-63
2022/10/01 00:58:53;;;;;;;12.00;8.77;;;13.20;99.90;14.40;96536.00;;;;5004842;28;20669;-63
2022/10/01 01:01:41;;;;;;;11.57;8.67;;;13.10;99.90;14.50;96542.00;;;;4995404;28;20264;-63
2022/10/01 01:04:31;;;;;;;14.80;9.90;;;13.10;99.90;14.60;96549.00;;;;5002065;28;20584;-63
2022/10/01 01:07:21;;;;;;;13.47;9.60;;;13.10;99.90;14.60;96541.00;;;;4992153;28;20214;-62
2022/10/01 01:10:10;;;;;;;13.63;10.37;;;13.10;99.90;14.70;96529.00;;;;5003743;28;20225;-63
2022/10/01 01:13:13;;;;;;;15.20;9.57;;;13.10;99.90;14.70;96533.00;;;;5000332;28;20205;-62
2022/10/01 01:16:10;;;;;;;13.13;10.27;;;13.10;99.90;14.60;96530.00;;;;5003283;28;20222;-63
2022/10/01 01:19:04;;;;;;;15.13;10.77;;;13.10;99.90;14.50;96531.00;;;;5007344;28;20212;-63
2022/10/01 01:21:59;;;;;;;12.87;9.33;;;13.10;99.90;14.50;96527.00;;;;5004046;28;20244;-63
2022/10/01 01:24:55;;;;;;;14.33;8.60;;;13.00;99.90;14.50;96533.00;;;;4998447;28;20198;-63
2022/10/01 01:27:53;;;;;;;12.93;8.83;;;13.00;99.90;14.50;96525.00;;;;5001541;28;20254;-62
2022/10/01 01:30:44;;;;;;;10.77;7.67;;;13.00;99.90;14.50;96529.00;;;;5001688;28;20222;-63
2022/10/01 01:33:36;;;;;;;15.60;10.17;;;13.00;99.90;14.40;96532.00;;;;5008017;28;20248;-62
2022/10/01 01:36:30;;;;;;;17.23;11.20;;;12.90;99.90;14.40;96524.00;;;;5006453;28;20253;-63
2022/10/01 01:39:21;;;;;;;14.87;9.63;;;12.90;99.90;14.50;96500.00;;;;4996040;28;20800;-63
2022/10/01 01:42:16;;;;;;;14.10;8.80;;;12.90;99.90;14.40;96495.00;;;;5002851;28;20694;-63
2022/10/01 01:45:10;;;;;;;13.67;10.17;;;12.90;99.90;14.30;96498.00;;;;4999526;28;20206;-62
2022/10/01 01:48:02;;;;;;;17.33;10.70;;;12.90;99.90;14.20;96496.00;;;;5003724;28;20627;-63
2022/10/01 01:50:55;;;;;;;14.70;10.13;;;12.90;99.90;14.30;96488.00;;;;5006542;28;20230;-63
2022/10/01 01:53:44;;;;;;;14.17;10.47;;;12.80;99.90;14.40;96496.00;;;;4993055;28;20242;-62
2022/10/01 01:56:33;;;;;;;13.40;9.77;;;12.80;99.90;14.30;96505.00;;;;4994036;28;20657;-63
2022/10/01 01:59:22;;;;;;;8.80;6.83;;;12.80;99.90;14.30;96494.00;;;;5005868;28;20228;-63
2022/10/01 02:02:14;;;;;;;11.63;7.37;;;12.80;99.90;14.20;96484.00;;;;4999801;28;20285;-63
2022/10/01 02:05:09;;;;;;;7.13;5.67;;;12.70;99.90;14.20;96473.00;;;;4992662;28;21046;-63
2022/10/01 02:08:25;;;;;;;5.40;4.83;;;12.70;99.90;14.10;96480.00;;;;4999873;28;20226;-63
2022/10/01 02:11:24;;;;;;;5.70;4.93;;;12.70;99.90;14.10;96492.00;;;;5000028;28;20237;-63
2022/10/01 02:14:27;;;;;;;6.20;4.60;;;12.60;99.90;14.00;96484.00;;;;5007959;28;20214;-63
2022/10/01 02:17:29;;;;;;;5.70;4.20;;;12.50;99.90;13.90;96491.00;;;;4990763;28;20661;-63
2022/10/01 02:20:27;;;;;;;4.00;3.60;;;12.50;99.90;13.90;96493.00;;;;4996851;28;20378;-63
2022/10/01 02:23:21;;;;;;;4.10;3.53;;;12.50;99.90;13.80;96491.00;;;;5006352;28;20264;-63
2022/10/01 02:26:16;;;;;;;5.30;3.70;;;12.40;99.90;13.70;96507.00;;;;5003356;28;20201;-62
2022/10/01 02:29:08;;;;;;;3.63;3.33;;;12.30;99.90;13.60;96505.00;;;;4999383;28;20676;-62
2022/10/01 02:31:58;;;;;;;9.90;4.30;;;12.30;99.90;13.50;96491.00;;;;4991791;28;20206;-63
2022/10/01 02:34:49;;;;;;;4.93;3.23;;;12.20;99.90;13.50;96500.00;;;;5002529;28;20190;-63
2022/10/01 02:37:41;;;;;;;3.30;3.00;;;12.20;99.90;13.50;96495.00;;;;4991802;28;20293;-63
2022/10/01 02:40:36;;;;;;;6.50;4.80;;;12.10;99.90;13.40;96492.00;;;;4994286;28;20226;-63
2022/10/01 02:43:31;;;;;;;3.83;3.47;;;12.00;99.90;13.40;96491.00;;;;5002811;28;20629;-63
2022/10/01 02:46:27;;;;;;;4.23;3.83;;;12.00;99.90;13.40;96480.00;;;;5010293;28;20276;-63
2022/10/01 02:49:16;;;;;;;5.17;3.77;;;12.00;99.90;13.50;96495.00;;;;4998476;28;20211;-63
2022/10/01 02:52:14;;;;;;;4.70;4.27;;;12.00;99.90;13.00;96496.00;;;;5001925;28;20210;-63
2022/10/01 02:55:08;;;;;;;5.63;4.97;;;11.90;99.90;12.90;96490.00;;;;5015260;28;20190;-62
2022/10/01 02:57:58;;;;;;;4.87;3.63;;;11.90;99.90;13.10;96500.00;;;;4993970;28;20222;-63
2022/10/01 03:00:47;;;;;;;6.50;4.37;;;11.80;99.90;13.20;96498.00;;;;4998507;28;20217;-63
2022/10/01 03:03:35;;;;;;;4.47;4.00;;;11.80;99.90;13.00;96492.00;;;;4996984;28;20290;-63
2022/10/01 03:06:24;;;;;;;6.37;4.40;;;11.80;99.90;12.80;96491.00;;;;5002207;28;20711;-63
2022/10/01 03:09:13;;;;;;;4.93;4.40;;;11.80;99.90;12.70;96497.00;;;;5010411;28;20210;-63
2022/10/01 03:12:05;;;;;;;5.57;4.23;;;11.70;99.90;12.70;96495.00;;;;5002763;28;20230;-63
2022/10/01 03:14:54;;;;;;;4.63;4.10;;;11.60;99.90;12.70;96503.00;;;;5004491;28;20721;-63
2022/10/01 03:17:43;;;;;;;4.37;3.97;;;11.60;99.90;12.60;96504.00;;;;5001025;28;20310;-63
2022/10/01 03:20:31;;;;;;;4.70;3.50;;;11.50;99.90;12.80;96509.00;;;;5010628;28;20226;-63
2022/10/01 03:23:20;;;;;;;4.77;3.80;;;11.50;99.90;12.90;96503.00;;;;4996261;28;20215;-63
2022/10/01 03:26:09;;;;;;;5.33;3.50;;;11.50;99.90;13.00;96503.00;;;;4999307;28;20249;-62
2022/10/01 03:28:59;;;;;;;4.37;3.37;;;11.50;99.90;13.10;96498.00;;;;5004133;28;20552;-63
2022/10/01 03:31:47;;;;;;;3.57;2.77;;;11.50;99.90;13.00;96497.00;;;;5007525;28;20285;-61
2022/10/01 03:34:36;;;;;;;3.03;2.70;;;11.60;99.90;13.10;96502.00;;;;4994074;28;20199;-63
2022/10/01 03:37:25;;;;;;;3.50;3.00;;;11.60;99.90;13.00;96506.00;;;;4994110;28;20354;-63
2022/10/01 03:40:13;;;;;;;3.40;3.10;;;11.60;99.90;12.90;96503.00;;;;5002541;28;20227;-63
2022/10/01 03:43:02;;;;;;;5.57;3.17;;;11.60;99.90;13.00;96505.00;;;;5005261;28;20678;-63
2022/10/01 03:45:52;;;;;;;3.50;3.20;;;11.60;99.90;13.10;96513.00;;;;5001409;28;20202;-62
2022/10/01 03:48:41;;;;;;;3.27;2.97;;;11.60;99.90;12.90;96509.00;;;;4996383;28;20204;-63
2022/10/01 03:51:31;;;;;;;2.67;2.47;;;11.60;99.90;12.90;96506.00;;;;5002767;28;20388;-63
2022/10/01 03:54:20;;;;;;;3.77;2.67;;;11.60;99.90;12.90;96504.00;;;;4993587;28;20202;-62
2022/10/01 03:57:09;;;;;;;3.50;3.20;;;11.60;99.90;13.10;96510.00;;;;5002662;28;20218;-63
2022/10/01 03:59:57;;;;;;;9.80;4.63;;;11.60;99.90;13.00;96506.00;;;;5000129;28;20301;-62
2022/10/01 04:02:47;;;;;;;5.07;4.07;;;11.60;99.90;12.70;96509.00;;;;5010617;28;20202;-62
2022/10/01 04:05:36;;;;;;;2.70;2.50;;;11.60;99.90;12.90;96516.00;;;;5003602;28;20226;-63
2022/10/01 04:08:25;;;;;;;3.10;2.80;;;11.60;99.90;12.80;96519.00;;;;5011097;28;20241;-62
2022/10/01 04:11:13;;;;;;;3.37;2.87;;;11.60;99.90;12.80;96513.00;;;;5002448;28;20236;-63
2022/10/01 04:14:02;;;;;;;2.90;2.33;;;11.50;99.90;12.80;96509.00;;;;4991042;28;20202;-62
2022/10/01 04:16:51;;;;;;;3.37;2.80;;;11.50;99.90;12.80;96524.00;;;;4991968;28;20237;-64
2022/10/01 04:19:41;;;;;;;3.33;3.07;;;11.50;99.90;12.80;96515.00;;;;4998462;28;20221;-62
2022/10/01 04:22:30;;;;;;;3.20;2.90;;;11.50;99.90;12.90;96512.00;;;;4996575;28;20214;-63
2022/10/01 04:25:18;;;;;;;2.87;2.47;;;11.50;99.90;13.00;96512.00;;;;5003523;28;20198;-63
2022/10/01 04:28:10;;;;;;;3.10;2.83;;;11.60;99.90;13.00;96504.00;;;;5002165;28;20290;-63
2022/10/01 04:34:06;;;;;;;3.23;2.93;;;11.70;99.90;13.00;96517.00;;;;5001639;28;20216;-63
2022/10/01 04:36:56;;;;;;;2.80;2.50;;;11.70;99.90;12.90;96518.00;;;;4995563;28;20331;-63
2022/10/01 04:39:45;;;;;;;1.87;1.67;;;11.60;99.90;13.10;96517.00;;;;5018560;28;20233;-62
2022/10/01 04:42:34;;;;;;;1.97;1.87;;;11.60;99.90;13.00;96510.00;;;;5016183;23;20243;-67
2022/10/01 04:45:23;;;;;;;2.47;2.27;;;11.60;99.90;13.10;96510.00;;;;4984237;28;20636;-67
2022/10/01 04:48:11;;;;;;;2.73;2.43;;;11.70;99.90;13.20;96496.00;;;;4986649;28;20317;-67
2022/10/01 04:51:00;;;;;;;1.80;1.70;;;11.70;99.90;13.30;96508.00;;;;4988916;28;20203;-67
2022/10/01 04:53:50;;;;;;;3.03;2.57;;;11.70;99.90;13.10;96502.00;;;;4979759;28;20298;-67
2022/10/01 04:56:39;;;;;;;2.13;2.03;;;11.70;99.90;13.00;96510.00;;;;4985004;28;20208;-67
2022/10/01 04:59:27;;;;;;;2.57;2.43;;;11.70;99.90;13.10;96509.00;;;;4988775;28;20202;-67
2022/10/01 05:02:16;;;;;;;3.23;2.50;;;11.70;99.90;13.00;96520.00;;;;4989337;28;20289;-67
2022/10/01 05:05:07;;;;;;;3.37;2.13;;;11.70;99.90;12.90;96522.00;;;;4991594;28;20198;-67
2022/10/01 05:07:56;;;;;;;4.63;3.80;;;11.70;99.90;12.90;96513.00;;;;4987633;28;20623;-67
2022/10/01 05:10:46;;;;;;;3.10;2.73;;;11.70;99.90;12.80;96523.00;;;;4983419;28;20203;-67
2022/10/01 05:13:35;;;;;;;3.00;2.80;;;11.60;99.90;13.00;96519.00;;;;4990863;28;20320;-67
2022/10/01 05:16:24;;;;;;;4.37;3.50;;;11.60;99.90;12.90;96524.00;;;;4990596;28;20316;-67
2022/10/01 05:19:13;;;;;;;4.70;2.63;;;11.60;99.90;12.90;96532.00;;;;4980440;28;20223;-67
2022/10/01 05:22:03;;;;;;;2.27;2.07;;;11.60;99.90;12.60;96532.00;;;;4988716;28;20233;-67
2022/10/01 05:24:52;;;;;;;2.60;2.40;;;11.60;99.90;12.60;96531.00;;;;4986509;28;20791;-67
2022/10/01 05:27:42;;;;;;;2.53;2.33;;;11.60;99.90;12.80;96527.00;;;;4986725;28;20253;-67
2022/10/01 05:30:31;;;;;;;2.30;2.10;;;11.60;99.90;12.80;96523.00;;;;4989394;28;20217;-67
2022/10/01 05:33:20;;;;;;;1.90;1.80;;;11.60;99.90;12.50;96527.00;;;;4989156;28;20305;-67
2022/10/01 05:36:09;;;;;;;2.10;1.90;;;11.50;99.90;12.60;96522.00;;;;4989732;28;20719;-67
2022/10/01 05:38:58;;;;;;;2.40;2.20;;;11.50;99.90;13.00;96526.00;;;;4992190;28;20253;-67
2022/10/01 05:41:47;;;;;;;2.83;2.13;;;11.50;99.90;13.10;96534.00;;;;4984324;28;20253;-67
2022/10/01 05:44:38;;;;;;;2.83;2.23;;;11.60;99.90;13.20;96532.00;;;;4987692;28;20546;-67
2022/10/01 05:47:27;;;;;;;2.43;2.20;;;11.60;99.90;13.00;96538.00;;;;4989316;28;20297;-67
2022/10/01 05:50:16;;;;;;;2.43;2.23;;;11.60;99.90;12.90;96542.00;;;;4979394;28;20211;-67
2022/10/01 05:53:06;;;;;;;2.43;2.27;;;11.60;99.90;13.10;96537.00;;;;4977251;28;20277;-67
2022/10/01 05:55:55;;;;;;;2.33;2.13;;;11.60;99.90;13.30;96536.00;;;;4978258;28;20781;-67
2022/10/01 05:58:45;;;;;;;2.43;2.30;;;11.70;99.90;13.40;96537.00;;;;4987682;28;20227;-67
2022/10/01 06:01:35;;;;;;;2.00;1.90;;;11.80;99.90;13.30;96533.00;;;;4983843;28;20202;-67
2022/10/01 06:04:24;;;;;;;2.60;2.40;;;11.80;99.90;13.40;96525.00;;;;4989649;28;20828;-67
2022/10/01 06:07:13;;;;;;;3.43;2.47;;;11.90;99.90;13.30;96514.00;;;;4990698;28;20206;-67
2022/10/01 06:10:01;;;;;;;2.80;2.17;;;11.90;99.90;13.20;96511.00;;;;4989405;28;20205;-67
2022/10/01 06:12:50;;;;;;;2.07;1.87;;;11.90;99.90;13.30;96513.00;;;;4982399;28;20262;-67
2022/10/01 06:15:39;;;;;;;2.67;2.43;;;11.90;99.90;13.20;96514.00;;;;4981991;28;20207;-67
2022/10/01 06:18:29;;;;;;;2.30;2.10;;;11.90;99.90;13.30;96512.00;;;;4987460;28;20226;-67
2022/10/01 06:21:18;;;;;;;4.80;2.10;;;11.90;99.90;13.40;96509.00;;;;4992361;28;20688;-67
2022/10/01 06:24:07;;;;;;;2.63;2.43;;;12.00;99.90;13.30;96502.00;;;;4987064;28;20801;-67
2022/10/01 06:26:56;;;;;;;2.50;2.30;;;12.00;99.90;13.30;96509.00;;;;4990474;28;20714;-67
2022/10/01 06:29:44;;;;;;;1.87;1.77;;;12.00;99.90;13.40;96509.00;;;;4990944;28;20257;-67
2022/10/01 06:32:33;;;;;;;2.30;2.10;;;12.10;99.90;13.30;96513.00;;;;4994495;28;20608;-67
2022/10/01 06:35:23;;;;;;;2.00;1.70;;;12.10;99.90;13.40;96507.00;;;;4994888;28;20209;-67
2022/10/01 06:38:13;;;;;;;2.33;2.13;;;12.10;99.90;13.40;96501.00;;;;4989189;28;20983;-68
2022/10/01 06:41:03;;;;;;;2.00;1.90;;;12.20;99.90;13.60;96506.00;;;;4993030;28;20198;-68
2022/10/01 06:43:54;;;;;;;2.40;2.10;;;12.20;99.90;13.70;96503.00;;;;5010166;28;20222;-67
2022/10/01 06:46:45;;;;;;;3.07;1.93;;;12.30;99.90;13.90;96506.00;;;;5019069;28;20233;-67
2022/10/01 06:49:34;;;;;;;1.90;1.80;;;12.40;99.90;14.10;96490.00;;;;5008417;28;20238;-67
2022/10/01 06:55:34;;;;;;;1.90;1.80;;;12.40;99.90;13.90;96504.00;;;;5008940;28;20213;-67
2022/10/01 06:58:25;;;;;;;3.43;2.30;;;12.50;99.90;13.90;96493.00;;;;5014220;28;20252;-67
2022/10/01 07:01:18;;;;;;;2.17;1.97;;;12.50;99.90;13.90;96499.00;;;;5009143;28;20213;-67
2022/10/01 07:04:07;;;;;;;2.73;2.13;;;12.50;99.90;14.00;96490.00;;;;5008928;28;20229;-67
2022/10/01 07:06:56;;;;;;;2.20;2.00;;;12.50;99.90;14.30;96494.00;;;;5008151;28;20197;-67
2022/10/01 07:09:46;;;;;;;2.73;2.53;;;12.60;99.90;14.70;96500.00;;;;5015955;28;20692;-67
2022/10/01 07:12:36;;;;;;;3.43;2.17;;;12.80;99.90;14.90;96497.00;;;;5016667;28;20622;-67
2022/10/01 07:15:25;;;;;;;2.60;2.40;;;12.90;99.90;15.10;96499.00;;;;5010240;28;20968;-67
2022/10/01 07:18:15;;;;;;;2.67;2.47;;;13.10;99.90;15.30;96498.00;;;;5004274;28;20273;-67
2022/10/01 07:21:04;;;;;;;3.53;3.00;;;13.20;99.90;15.40;96510.00;;;;5006332;28;20205;-68
2022/10/01 07:23:53;;;;;;;3.27;2.80;;;13.40;99.90;15.50;96504.00;;;;5004755;28;20322;-66
2022/10/01 07:26:43;;;;;;;5.93;3.07;;;13.50;99.90;15.60;96496.00;;;;5007276;28;20665;-67
2022/10/01 07:29:32;;;;;;;3.33;3.07;;;13.60;99.90;15.60;96502.00;;;;5011814;28;20206;-67
2022/10/01 07:32:20;;;;;;;3.27;2.87;;;13.70;99.90;15.60;96517.00;;;;5004103;28;20218;-67
2022/10/01 07:35:09;;;;;;;3.70;2.53;;;13.80;99.90;15.40;96517.00;;;;5009104;28;20218;-67
2022/10/01 07:37:58;;;;;;;3.10;2.90;;;13.80;99.90;15.60;96503.00;;;;5009130;28;20267;-67
2022/10/01 07:40:51;;;;;;;3.77;2.77;;;13.80;99.90;15.90;96503.00;;;;5006948;28;20205;-67
2022/10/01 07:43:42;;;;;;;4.10;3.27;;;13.90;99.90;16.00;96512.00;;;;4990800;28;20226;-68
2022/10/01 07:46:31;;;;;;;6.17;3.20;;;14.00;99.90;16.00;96517.00;;;;4991975;28;20209;-67
2022/10/01 07:49:22;;;;;;;3.60;3.30;;;14.10;99.90;15.80;96537.00;;;;4991817;28;20205;-67
2022/10/01 07:52:11;;;;;;;4.70;3.67;;;14.20;99.90;15.60;96531.00;;;;4987152;28;20227;-67
2022/10/01 07:55:00;;;;;;;3.53;3.23;;;14.10;99.90;15.90;96522.00;;;;4986127;28;20213;-67
2022/10/01 07:57:52;;;;;;;3.27;2.97;;;14.10;99.90;15.90;96531.00;;;;4991270;28;20250;-68
2022/10/01 08:00:43;;;;;;;3.40;3.13;;;14.10;99.90;16.00;96527.00;;;;4991249;28;20273;-67
2022/10/01 08:03:32;;;;;;;3.47;3.17;;;14.10;99.90;16.10;96523.00;;;;4990493;28;20233;-67
2022/10/01 08:06:21;;;;;;;3.20;2.90;;;14.20;99.90;16.30;96518.00;;;;5000692;28;20194;-67
2022/10/01 08:09:12;;;;;;;4.20;3.83;;;14.30;99.90;16.50;96510.00;;;;4995456;28;20260;-67
2022/10/01 08:12:01;;;;;;;3.47;3.17;;;14.40;99.90;16.90;96506.00;;;;4994786;28;20207;-67
2022/10/01 08:14:50;;;;;;;5.20;3.50;;;14.60;99.90;17.40;96497.00;;;;4985493;28;20296;-67
2022/10/01 08:17:41;;;;;;;5.40;2.93;;;14.90;99.90;17.60;96493.00;;;;4996530;28;20281;-67
2022/10/01 08:20:30;;;;;;;3.83;3.03;;;15.30;99.90;17.70;96494.00;;;;4994123;28;20226;-67
2022/10/01 08:23:18;;;;;;;2.80;2.60;;;15.50;99.90;18.20;96498.00;;;;4988796;28;20218;-67
2022/10/01 08:26:08;;;;;;;3.57;3.00;;;15.90;99.90;18.50;96493.00;;;;4994551;28;20215;-67
2022/10/01 08:28:58;;;;;;;3.13;2.93;;;16.10;99.90;18.60;96510.00;;;;4990142;28;20268;-67
2022/10/01 08:31:47;;;;;;;3.60;2.50;;;16.30;99.90;18.70;96504.00;;;;4994180;28;20252;-67
2022/10/01 08:34:37;;;;;;;3.00;2.70;;;16.50;99.90;18.80;96495.00;;;;4993815;28;20210;-67
2022/10/01 08:37:27;;;;;;;5.50;2.50;;;16.60;99.90;19.00;96495.00;;;;4982979;28;20233;-67
2022/10/01 08:40:16;;;;;;;3.13;2.83;;;16.80;99.90;18.70;96515.00;;;;4985932;28;20218;-67
2022/10/01 08:43:07;;;;;;;2.83;2.63;;;16.80;99.90;18.80;96518.00;;;;4988191;28;20234;-67
2022/10/01 08:45:59;;;;;;;3.17;2.50;;;16.90;99.90;18.60;96519.00;;;;4987104;28;20199;-67
2022/10/01 08:48:58;;;;;;;9.23;2.13;;;16.90;99.90;18.10;96518.00;;;;4988196;28;20623;-67
2022/10/01 08:51:54;;;;;;;2.37;2.17;;;16.80;99.90;18.70;96511.00;;;;4986688;28;20206;-67
2022/10/01 08:54:49;;;;;;;4.70;2.37;;;16.70;99.90;18.90;96510.00;;;;4985675;28;20206;-67
2022/10/01 08:57:42;;;;;;;2.30;1.97;;;16.80;99.90;19.00;96513.00;;;;4987118;28;20198;-67
2022/10/01 09:00:34;;;;;;;2.10;1.90;;;16.90;99.90;19.10;96516.00;;;;4988199;28;20695;-68
2022/10/01 09:03:22;;;;;;;4.07;2.00;;;17.00;99.90;18.80;96512.00;;;;4985684;28;20246;-67
2022/10/01 09:06:19;;;;;;;2.10;1.90;;;17.00;99.90;18.50;96520.00;;;;4985938;28;20565;-68
2022/10/01 09:09:37;;;;;;;2.63;2.43;;;17.00;99.90;18.80;96509.00;;;;4986875;28;20221;-68
2022/10/01 09:12:41;;;;;;;2.67;2.47;;;16.90;99.90;18.90;96500.00;;;;4987524;28;20226;-67
2022/10/01 09:15:40;;;;;;;2.63;2.43;;;16.90;99.90;19.40;96496.00;;;;4988376;28;20225;-67
2022/10/01 09:18:44;;;;;;;2.70;2.50;;;17.00;99.90;19.30;96499.00;;;;4984596;28;20245;-68
2022/10/01 09:21:53;;;;;;;4.93;3.10;;;17.20;99.90;19.50;96497.00;;;;4989378;28;20203;-67
2022/10/01 09:24:46;;;;;;;3.03;2.77;;;17.30;99.90;19.30;96500.00;;;;4984628;28;20203;-67
2022/10/01 09:27:36;;;;;;;3.17;2.87;;;17.40;99.90;19.40;96471.00;;;;4983744;28;20618;-67
2022/10/01 09:30:25;;;;;;;3.00;2.80;;;17.50;99.90;19.20;96486.00;;;;4983491;28;20218;-67
2022/10/01 09:33:18;;;;;;;2.17;2.03;;;17.60;99.90;19.70;96488.00;;;;4985576;28;20657;-67
2022/10/01 09:36:16;;;;;;;2.70;2.47;;;17.60;99.90;20.00;96495.00;;;;4985425;28;20260;-67
2022/10/01 09:39:18;;;;;;;3.60;2.17;;;17.70;99.90;20.00;96493.00;;;;4986948;28;20206;-68
2022/10/01 09:42:08;;;;;;;5.53;4.17;;;17.90;99.90;19.00;96490.00;;;;4986966;28;20229;-68
2022/10/01 09:44:57;;;;;;;3.30;2.90;;;17.80;99.90;18.70;96500.00;;;;4983292;28;20261;-68
2022/10/01 09:47:52;;;;;;;3.23;2.93;;;17.60;99.90;17.70;96497.00;;;;4987446;28;20281;-68
2022/10/01 09:50:53;;;;;;;2.53;2.33;;;17.20;99.90;17.70;96480.00;;;;4982680;28;20207;-67
2022/10/01 09:53:58;;;;;;;3.80;3.50;;;16.80;99.90;17.60;96474.00;;;;4983709;28;20226;-67
2022/10/01 09:56:52;;;;;;;3.83;3.30;;;16.60;99.90;17.80;96486.00;;;;4987826;28;20190;-67
2022/10/01 09:59:48;;;;;;;3.20;2.90;;;16.40;99.90;17.70;96498.00;;;;4988357;28;20309;-67
2022/10/01 10:02:42;;;;;;;3.37;3.07;;;16.30;99.90;18.20;96504.00;;;;4992250;28;20226;-67
2022/10/01 10:05:42;;;;;;;3.40;3.10;;;16.30;99.90;18.10;96497.00;;;;4984662;28;20574;-67
2022/10/01 10:08:35;;;;;;;3.20;2.97;;;16.40;99.90;18.00;96495.00;;;;4993501;28;20210;-66
2022/10/01 10:11:27;;;;;;;4.23;3.40;;;16.50;99.90;18.20;96486.00;;;;4988846;28;20746;-67
2022/10/01 10:14:28;;;;;;;3.70;3.40;;;16.50;99.90;18.70;96500.00;;;;4989405;28;20298;-66
2022/10/01 10:17:20;;;;;;;3.10;2.80;;;16.60;99.90;18.30;96497.00;;;;4989831;28;20266;-66
2022/10/01 10:20:24;;;;;;;4.27;3.60;;;16.70;99.90;18.40;96493.00;;;;4988924;28;20226;-66
2022/10/01 10:23:18;;;;;;;3.47;3.17;;;16.70;99.90;18.70;96484.00;;;;4984299;28;20751;-66
2022/10/01 10:26:08;;;;;;;3.63;3.30;;;16.80;99.90;18.90;96497.00;;;;4989642;28;20199;-66
2022/10/01 10:28:57;;;;;;;3.33;3.03;;;16.90;99.90;19.10;96487.00;;;;4993080;28;20207;-66
2022/10/01 10:31:48;;;;;;;2.50;2.30;;;16.90;99.90;19.20;96490.00;;;;4992649;28;20210;-67
2022/10/01 10:34:45;;;;;;;2.53;2.20;;;17.00;99.90;19.20;96479.00;;;;4989664;28;20217;-66
2022/10/01 10:37:39;;;;;;;1.93;1.83;;;17.10;99.90;19.20;96479.00;;;;4986028;28;20216;-66
2022/10/01 10:40:41;;;;;;;2.77;1.90;;;17.20;99.90;19.20;96493.00;;;;4990102;28;20785;-66
2022/10/01 10:43:34;;;;;;;2.87;2.67;;;17.20;99.90;19.20;96490.00;;;;5001651;23;20234;-73
2022/10/01 10:46:30;;;;;;;3.40;2.10;;;17.30;99.90;19.00;96474.00;;;;4974744;28;20346;-73
2022/10/01 10:49:25;;;;;;;1.70;1.60;;;17.30;99.90;19.00;96484.00;;;;4983049;28;20207;-73
2022/10/01 10:52:28;;;;;;;3.83;1.93;;;17.20;99.90;19.10;96462.00;;;;4989689;28;20702;-73
2022/10/01 10:55:24;;;;;;;3.67;2.27;;;17.20;99.90;18.40;96455.00;;;;4993213;28;20210;-73
2022/10/01 10:58:15;;;;;;;2.30;2.10;;;17.10;99.90;18.30;96457.00;;;;4989935;28;20608;-73
2022/10/01 11:01:09;;;;;;;2.83;2.63;;;17.00;99.90;18.60;96454.00;;;;4991500;28;20223;-73
2022/10/01 11:04:00;;;;;;;1.97;1.87;;;17.00;99.90;18.80;96456.00;;;;4996937;28;20222;-73
2022/10/01 11:06:57;;;;;;;3.23;2.13;;;17.00;99.90;18.50;96454.00;;;;4990630;28;20209;-74
2022/10/01 11:10:04;;;;;;;2.53;2.10;;;17.00;99.90;19.00;96439.00;;;;4986080;28;20298;-73
2022/10/01 11:13:23;;;;;;;2.77;2.57;;;17.10;99.90;19.70;96421.00;;;;4987578;28;20227;-72
2022/10/01 11:16:43;;;;;;;2.53;2.30;;;17.30;99.90;20.40;96426.00;;;;4982319;28;20707;-72
2022/10/01 11:19:49;;;;;;;2.27;2.07;;;17.60;99.90;20.80;96423.00;;;;4986116;28;20276;-73
2022/10/01 11:22:57;;;;;;;2.00;1.80;;;18.00;99.90;20.70;96425.00;;;;4985864;28;20253;-73
2022/10/01 11:26:00;;;;;;;1.57;1.47;;;18.30;99.90;20.60;96434.00;;;;4992105;28;20248;-73
2022/10/01 11:29:07;;;;;;;1.77;1.60;;;18.40;99.90;20.40;96431.00;;;;4986960;28;20292;-73
2022/10/01 11:32:05;;;;;;;1.80;1.70;;;18.40;99.90;20.30;96426.00;;;;4988773;28;20210;-73
2022/10/01 11:35:31;;;;;;;2.90;1.77;;;18.40;99.90;20.00;96419.00;;;;4984001;28;20203;-73
2022/10/01 11:38:40;;;;;;;1.70;1.60;;;18.30;99.90;19.80;96420.00;;;;4956192;28;20456;-73
2022/10/01 11:41:37;;;;;;;1.83;1.60;;;18.20;99.90;19.90;96419.00;;;;4986061;28;20714;-73
2022/10/01 11:44:31;;;;;;;2.07;1.90;;;18.10;99.90;19.60;96410.00;;;;4987556;28;20230;-74
2022/10/01 11:47:27;;;;;;;2.03;1.93;;;18.00;99.90;19.10;96399.00;;;;4992946;28;20213;-73
2022/10/01 11:50:20;;;;;;;1.87;1.77;;;17.80;99.90;19.20;96408.00;;;;4996598;28;20252;-73
2022/10/01 11:53:17;;;;;;;2.67;2.47;;;17.70;99.90;18.90;96410.00;;;;5000112;28;20215;-73
2022/10/01 11:59:24;;;;;;;2.43;2.23;;;17.50;99.90;19.00;96404.00;;;;4989213;28;20687;-72
2022/10/01 12:02:24;;;;;;;2.17;1.97;;;17.50;99.90;19.00;96403.00;;;;4986086;28;20229;-73
2022/10/01 12:05:18;;;;;;;2.20;2.00;;;17.40;99.90;18.80;96401.00;;;;4987490;28;20199;-73
2022/10/01 12:08:16;;;;;;;2.20;1.90;;;17.30;99.90;18.60;96404.00;;;;4989060;28;20198;-74
2022/10/01 12:11:16;;;;;;;2.07;1.97;;;17.20;99.90;19.00;96403.00;;;;4983329;28;20218;-74
2022/10/01 12:14:12;;;;;;;3.00;2.03;;;17.20;99.90;19.40;96385.00;;;;4990222;28;20219;-73
2022/10/01 12:17:12;;;;;;;2.37;2.17;;;17.30;99.90;19.80;96383.00;;;;4993277;28;20213;-74
2022/10/01 12:20:05;;;;;;;2.50;2.30;;;17.50;99.90;20.20;96345.00;;;;4993466;28;20222;-74
2022/10/01 12:22:55;;;;;;;2.33;2.07;;;17.70;99.90;21.00;96361.00;;;;4992892;28;20324;-73
2022/10/01 12:25:51;;;;;;;2.57;2.37;;;18.10;99.90;21.20;96366.00;;;;4986569;28;20207;-73
2022/10/01 12:28:47;;;;;;;2.10;1.90;;;18.50;99.90;21.60;96346.00;;;;4973614;28;20687;-73
2022/10/01 12:31:47;;;;;;;2.63;1.97;;;18.80;99.90;21.50;96353.00;;;;4977513;28;20203;-74
2022/10/01 12:34:49;;;;;;;2.07;1.90;;;19.10;99.90;21.30;96344.00;;;;4980439;28;20203;-73
2022/10/01 12:37:59;;;;;;;2.57;2.37;;;19.20;99.90;20.70;96339.00;;;;4986773;28;20205;-73
2022/10/01 12:40:58;;;;;;;1.87;1.77;;;19.20;99.90;21.10;96325.00;;;;4987434;28;20226;-74
2022/10/01 12:44:17;;;;;;;1.57;1.47;;;19.10;99.90;21.40;96310.00;;;;4983932;28;20723;-72
2022/10/01 12:47:29;;;;;;;2.37;2.17;;;19.10;99.90;20.70;96311.00;;;;4987054;28;20202;-74
2022/10/01 12:50:31;;;;;;;2.83;2.27;;;19.20;99.90;20.00;96321.00;;;;4987898;28;20203;-74
2022/10/01 12:53:32;;;;;;;2.43;2.27;;;19.00;99.90;20.20;96319.00;;;;4985429;28;20230;-74
2022/10/01 12:56:31;;;;;;;2.53;2.00;;;18.90;99.90;19.80;96320.00;;;;4987133;28;20203;-72